This is the latest recevied weather packets stored in our database for station/object XW7RMR. If no packets are shown the sender has not sent any weather packets the latest 1 day(s).
| Time | Temp. | Humidity | Pressure | Rain* | Wind** | Luminosity | Snow |
|---|---|---|---|---|---|---|---|
| 1778107404 | 21.67° C | 60% | 1018.6 hPa | 0 mm | - | 381 W/m² | - |
| 1778105584 | 20.56° C | 60% | 1019 hPa | 0 mm | - | 547 W/m² | - |
| 1778105282 | 22.22° C | 59% | 1018.8 hPa | 0 mm | - | 376 W/m² | - |
| 1778104679 | 22.78° C | 59% | 1019.2 hPa | 0 mm | - | 826 W/m² | - |
| 1778103768 | 23.33° C | 54% | 1018.9 hPa | 0 mm | - | 797 W/m² | - |
| 1778103163 | 21.67° C | 61% | 1018.9 hPa | 0 mm | - | 472 W/m² | - |
| 1778102556 | 21.67° C | 61% | 1019.3 hPa | 0 mm | - | 342 W/m² | - |
| 1778101342 | 19.44° C | 66% | 1019.5 hPa | 0 mm | - | 596 W/m² | - |
| 1778101039 | 19.44° C | 67% | 1019.4 hPa | 0 mm | - | 436 W/m² | - |
| 1778100734 | 19.44° C | 66% | 1019.4 hPa | 0 mm | - | 363 W/m² | - |
| 1778100129 | 20° C | 64% | 1019.1 hPa | 0 mm | - | 967 W/m² | - |
| 1778099827 | 19.44° C | 68% | 1019.4 hPa | 0 mm | - | 475 W/m² | - |
| 1778098917 | 19.44° C | 66% | 1019.2 hPa | 0 mm | - | 887 W/m² | - |
| 1778097401 | 18.33° C | 69% | 1019.8 hPa | 0 mm | - | 598 W/m² | - |
| 1778096795 | 18.89° C | 69% | 1019.9 hPa | 0 mm | - | 779 W/m² | - |
| 1778096189 | 18.33° C | 70% | 1019.8 hPa | 0 mm | - | 353 W/m² | - |
| 1778095886 | 17.78° C | 73% | 1019.9 hPa | 0 mm | - | 291 W/m² | - |
| 1778094671 | 17.78° C | 73% | 1019.8 hPa | 0 mm | - | 423 W/m² | - |
| 1778093763 | 17.78° C | 71% | 1019.8 hPa | 0 mm | - | 620 W/m² | - |
| 1778093459 | 17.78° C | 70% | 1019.8 hPa | 0 mm | - | 545 W/m² | - |
| 1778092854 | 17.78° C | 72% | 1019.6 hPa | 0 mm | - | 856 W/m² | - |
| 1778091641 | 16.67° C | 73% | 1019.8 hPa | 0 mm | - | 496 W/m² | - |
| 1778091339 | 17.22° C | 74% | 1019.9 hPa | 0 mm | - | 364 W/m² | - |
| 1778089216 | 16.67° C | 75% | 1019.7 hPa | 0 mm | - | 382 W/m² | - |
| 1778088914 | 16.67° C | 74% | 1019.7 hPa | 0 mm | - | 329 W/m² | - |
* Rain latest hour (hover to see other rain measurements)
** Current wind speed in m/s (hover to see current wind gust speed)